Time;durP1;ratioP1;P1;durP2;ratioP2;P2;SDS_P1;SDS_P2;PMS_P1;PMS_P2;Temp;Humidity;BMP_temperature;BMP_pressure;BME280_temperature;BME280_humidity;BME280_pressure;Samples;Min_cycle;Max_cycle;Signal;HPM_P1;HPM_P2
2023/05/21 00:02:21;;;;;;;33.20;25.40;;;;;;;-128.00;-1.00;-1.00;104972;1258;1004372;-77
2023/05/21 00:04:47;;;;;;;37.20;25.20;;;;;;;-128.00;-1.00;-1.00;105080;1259;1005770;-79
2023/05/21 00:07:14;;;;;;;36.50;24.30;;;;;;;-128.00;-1.00;-1.00;105066;1259;1004202;-77
2023/05/21 00:09:40;;;;;;;34.80;23.40;;;;;;;-128.00;-1.00;-1.00;105039;1260;1004873;-79
2023/05/21 00:12:07;;;;;;;34.30;25.40;;;;;;;-128.00;-1.00;-1.00;105074;1259;1004502;-79
2023/05/21 00:14:33;;;;;;;35.50;25.50;;;;;;;-128.00;-1.00;-1.00;105052;1260;1003579;-79
2023/05/21 00:17:00;;;;;;;59.60;33.60;;;;;;;-128.00;-1.00;-1.00;104951;1259;1005181;-79
2023/05/21 00:19:26;;;;;;;56.40;30.10;;;;;;;-128.00;-1.00;-1.00;105061;1260;1003992;-80
2023/05/21 00:21:53;;;;;;;43.10;26.30;;;;;;;-128.00;-1.00;-1.00;105040;1260;1003697;-79
2023/05/21 00:24:20;;;;;;;36.80;25.40;;;;;;;-128.00;-1.00;-1.00;105063;1260;1004768;-77
2023/05/21 00:26:46;;;;;;;43.10;26.50;;;;;;;-128.00;-1.00;-1.00;105067;1258;1004466;-77
2023/05/21 00:29:12;;;;;;;44.80;28.50;;;;;;;-128.00;-1.00;-1.00;105102;1260;1004122;-77
2023/05/21 00:31:39;;;;;;;44.30;28.20;;;;;;;-128.00;-1.00;-1.00;105063;1260;1006310;-79
2023/05/21 00:34:05;;;;;;;40.50;25.90;;;;;;;-128.00;-1.00;-1.00;105049;1260;1004332;-77
2023/05/21 00:36:33;;;;;;;36.60;26.60;;;;;;;-128.00;-1.00;-1.00;105083;1259;1004559;-77
2023/05/21 00:39:01;;;;;;;36.40;25.80;;;;;;;-128.00;-1.00;-1.00;104912;1264;1004229;-80
2023/05/21 00:41:28;;;;;;;32.80;22.20;;;;;;;-128.00;-1.00;-1.00;105090;1260;1003550;-77
2023/05/21 00:43:56;;;;;;;29.90;22.30;;;;;;;-128.00;-1.00;-1.00;105076;1260;1003821;-79
2023/05/21 00:46:22;;;;;;;37.90;25.20;;;;;;;-128.00;-1.00;-1.00;105078;1259;1004216;-76
2023/05/21 00:48:48;;;;;;;30.80;22.30;;;;;;;-128.00;-1.00;-1.00;105080;1259;1005343;-77
2023/05/21 00:51:17;;;;;;;27.40;19.90;;;;;;;-128.00;-1.00;-1.00;105096;1260;1003599;-77
2023/05/21 00:53:44;;;;;;;33.00;19.20;;;;;;;-128.00;-1.00;-1.00;105062;1260;1003592;-79
2023/05/21 00:56:10;;;;;;;33.70;22.30;;;;;;;-128.00;-1.00;-1.00;105186;1258;1004990;-77
2023/05/21 00:58:37;;;;;;;27.40;20.90;;;;;;;-128.00;-1.00;-1.00;105258;1260;1003436;-79
2023/05/21 01:01:05;;;;;;;34.70;23.00;;;;;;;-128.00;-1.00;-1.00;105163;1260;1005475;-77
2023/05/21 01:03:37;;;;;;;32.20;21.10;;;;;;;-128.00;-1.00;-1.00;105032;1259;1062874;-77
2023/05/21 01:06:07;;;;;;;32.10;22.20;;;;;;;-128.00;-1.00;-1.00;105170;1260;1059671;-78
2023/05/21 01:08:36;;;;;;;27.90;20.80;;;;;;;-128.00;-1.00;-1.00;105184;1258;1058716;-79
2023/05/21 01:11:03;;;;;;;28.90;20.10;;;;;;;-128.00;-1.00;-1.00;105103;1259;1045927;-79
2023/05/21 01:13:30;;;;;;;31.60;19.50;;;;;;;-128.00;-1.00;-1.00;105087;1260;1005803;-79
2023/05/21 01:15:57;;;;;;;29.20;20.60;;;;;;;-128.00;-1.00;-1.00;105071;1260;1005718;-77
2023/05/21 01:18:24;;;;;;;29.10;20.40;;;;;;;-128.00;-1.00;-1.00;105105;1259;1005714;-77
2023/05/21 01:20:51;;;;;;;34.60;21.20;;;;;;;-128.00;-1.00;-1.00;104969;1260;1004784;-77
2023/05/21 01:23:18;;;;;;;35.90;22.40;;;;;;;-128.00;-1.00;-1.00;105091;1260;1004124;-77
2023/05/21 01:25:45;;;;;;;37.40;23.40;;;;;;;-128.00;-1.00;-1.00;105095;1259;1006033;-77
2023/05/21 01:28:12;;;;;;;38.40;23.90;;;;;;;-128.00;-1.00;-1.00;105043;1260;1005003;-77
2023/05/21 01:30:39;;;;;;;48.70;28.20;;;;;;;-128.00;-1.00;-1.00;105047;1259;1004439;-79
2023/05/21 01:33:12;;;;;;;44.10;27.40;;;;;;;-128.00;-1.00;-1.00;105265;1259;1005034;-77
2023/05/21 01:35:52;;;;;;;46.00;27.40;;;;;;;-128.00;-1.00;-1.00;105125;1259;1046831;-79
2023/05/21 01:38:39;;;;;;;39.20;24.80;;;;;;;-128.00;-1.00;-1.00;105227;1259;1046569;-79
2023/05/21 01:41:16;;;;;;;40.90;26.40;;;;;;;-128.00;-1.00;-1.00;105192;1259;1061678;-77
2023/05/21 01:43:43;;;;;;;42.20;25.40;;;;;;;-128.00;-1.00;-1.00;105180;1260;1057587;-79
2023/05/21 01:46:11;;;;;;;39.90;24.80;;;;;;;-128.00;-1.00;-1.00;105152;1260;1004807;-77
2023/05/21 01:48:38;;;;;;;41.20;27.40;;;;;;;-128.00;-1.00;-1.00;105061;1260;1046711;-77
2023/05/21 01:51:04;;;;;;;41.00;24.10;;;;;;;-128.00;-1.00;-1.00;104984;1262;1003998;-77
2023/05/21 01:53:31;;;;;;;41.20;26.40;;;;;;;-128.00;-1.00;-1.00;105086;1259;1004832;-77
2023/05/21 01:55:58;;;;;;;39.80;25.60;;;;;;;-128.00;-1.00;-1.00;104930;1258;1003822;-77
2023/05/21 01:58:24;;;;;;;37.80;25.00;;;;;;;-128.00;-1.00;-1.00;105032;1260;1004142;-79
2023/05/21 02:00:51;;;;;;;40.60;25.50;;;;;;;-128.00;-1.00;-1.00;105043;1261;1004241;-79
2023/05/21 02:03:18;;;;;;;34.60;23.80;;;;;;;-128.00;-1.00;-1.00;104998;1260;1004470;-77
2023/05/21 02:05:45;;;;;;;34.00;23.20;;;;;;;-128.00;-1.00;-1.00;104998;1261;1004095;-79
2023/05/21 02:08:14;;;;;;;35.00;23.60;;;;;;;-128.00;-1.00;-1.00;105289;1259;1005267;-79
2023/05/21 02:10:40;;;;;;;44.00;25.00;;;;;;;-128.00;-1.00;-1.00;105121;1260;1003811;-77
2023/05/21 02:13:06;;;;;;;33.00;24.50;;;;;;;-128.00;-1.00;-1.00;105051;1261;1004507;-79
2023/05/21 02:15:33;;;;;;;38.70;25.70;;;;;;;-128.00;-1.00;-1.00;105106;1260;1004750;-77
2023/05/21 02:17:59;;;;;;;33.90;22.20;;;;;;;-128.00;-1.00;-1.00;105067;1259;1004578;-79
2023/05/21 02:20:26;;;;;;;32.40;23.90;;;;;;;-128.00;-1.00;-1.00;105056;1260;1005453;-78
2023/05/21 02:22:52;;;;;;;33.30;23.00;;;;;;;-128.00;-1.00;-1.00;105051;1260;1004648;-77
2023/05/21 02:25:18;;;;;;;30.10;22.30;;;;;;;-128.00;-1.00;-1.00;105016;1263;1004623;-79
2023/05/21 02:27:52;;;;;;;30.80;22.60;;;;;;;-128.00;-1.00;-1.00;105074;1259;1005331;-77
2023/05/21 02:30:18;;;;;;;32.20;22.40;;;;;;;-128.00;-1.00;-1.00;105057;1260;1061276;-76
2023/05/21 02:32:47;;;;;;;30.70;22.60;;;;;;;-128.00;-1.00;-1.00;105022;1259;1003990;-78
2023/05/21 02:35:14;;;;;;;30.70;22.00;;;;;;;-128.00;-1.00;-1.00;105037;1260;1059622;-77
2023/05/21 02:37:40;;;;;;;34.40;22.60;;;;;;;-128.00;-1.00;-1.00;104970;1260;1004331;-77
2023/05/21 02:40:08;;;;;;;29.90;23.40;;;;;;;-128.00;-1.00;-1.00;105073;1261;1004237;-79
2023/05/21 02:42:36;;;;;;;34.30;23.70;;;;;;;-128.00;-1.00;-1.00;105139;1259;1003873;-77
2023/05/21 02:45:03;;;;;;;28.80;21.70;;;;;;;-128.00;-1.00;-1.00;105195;1259;1004338;-79
2023/05/21 02:47:30;;;;;;;30.30;22.70;;;;;;;-128.00;-1.00;-1.00;105256;1259;1005257;-79
2023/05/21 02:49:58;;;;;;;26.90;19.90;;;;;;;-128.00;-1.00;-1.00;105271;1260;1005012;-79
2023/05/21 02:52:24;;;;;;;25.10;20.80;;;;;;;-128.00;-1.00;-1.00;105271;1260;1004134;-77
2023/05/21 02:54:51;;;;;;;27.50;20.20;;;;;;;-128.00;-1.00;-1.00;105243;1260;1003782;-77
2023/05/21 02:57:17;;;;;;;32.80;22.10;;;;;;;-128.00;-1.00;-1.00;105269;1259;1004084;-77
2023/05/21 02:59:44;;;;;;;33.60;22.40;;;;;;;-128.00;-1.00;-1.00;105254;1262;1004424;-79
2023/05/21 03:02:11;;;;;;;32.10;21.80;;;;;;;-128.00;-1.00;-1.00;105214;1263;1004120;-79
2023/05/21 03:04:37;;;;;;;28.20;21.20;;;;;;;-128.00;-1.00;-1.00;105242;1260;1004069;-79
2023/05/21 03:07:04;;;;;;;31.00;22.80;;;;;;;-128.00;-1.00;-1.00;105228;1263;1004906;-77
2023/05/21 03:09:31;;;;;;;31.50;21.40;;;;;;;-128.00;-1.00;-1.00;105135;1263;1004254;-79
2023/05/21 03:11:57;;;;;;;28.40;20.80;;;;;;;-128.00;-1.00;-1.00;105237;1260;1005424;-79
2023/05/21 03:14:23;;;;;;;28.50;20.90;;;;;;;-128.00;-1.00;-1.00;105237;1260;1004014;-77
2023/05/21 03:16:50;;;;;;;30.20;21.50;;;;;;;-128.00;-1.00;-1.00;105266;1258;1003995;-77
2023/05/21 03:19:16;;;;;;;29.90;20.50;;;;;;;-128.00;-1.00;-1.00;105283;1261;1004893;-79
2023/05/21 03:21:43;;;;;;;34.30;22.10;;;;;;;-128.00;-1.00;-1.00;105297;1259;1003686;-79
2023/05/21 03:24:12;;;;;;;27.20;20.00;;;;;;;-128.00;-1.00;-1.00;105267;1261;1003898;-77
2023/05/21 03:26:38;;;;;;;29.90;20.00;;;;;;;-128.00;-1.00;-1.00;105262;1261;1046484;-79
2023/05/21 03:29:05;;;;;;;34.30;20.10;;;;;;;-128.00;-1.00;-1.00;105240;1258;1005369;-79
2023/05/21 03:31:31;;;;;;;27.10;19.80;;;;;;;-128.00;-1.00;-1.00;105255;1261;1004328;-77
2023/05/21 03:33:58;;;;;;;25.50;19.60;;;;;;;-128.00;-1.00;-1.00;105174;1259;1004550;-77
2023/05/21 03:36:24;;;;;;;25.80;19.50;;;;;;;-128.00;-1.00;-1.00;105252;1260;1003504;-79
2023/05/21 03:38:51;;;;;;;25.40;18.60;;;;;;;-128.00;-1.00;-1.00;105261;1262;1005365;-79
2023/05/21 03:41:17;;;;;;;24.20;18.70;;;;;;;-128.00;-1.00;-1.00;105273;1258;1005763;-79
2023/05/21 03:43:44;;;;;;;28.20;20.40;;;;;;;-128.00;-1.00;-1.00;105261;1262;1003915;-77
2023/05/21 03:46:10;;;;;;;25.10;19.30;;;;;;;-128.00;-1.00;-1.00;105274;1259;1004308;-77
2023/05/21 03:48:36;;;;;;;24.70;18.50;;;;;;;-128.00;-1.00;-1.00;105244;1259;1004137;-77
2023/05/21 03:51:03;;;;;;;25.70;18.50;;;;;;;-128.00;-1.00;-1.00;105266;1258;1004055;-77
2023/05/21 03:53:29;;;;;;;26.20;19.20;;;;;;;-128.00;-1.00;-1.00;105226;1263;1003907;-77
2023/05/21 03:55:56;;;;;;;26.60;20.10;;;;;;;-128.00;-1.00;-1.00;105274;1259;1005171;-77
2023/05/21 03:58:22;;;;;;;27.40;19.10;;;;;;;-128.00;-1.00;-1.00;105229;1261;1004190;-79
2023/05/21 04:00:49;;;;;;;28.20;18.80;;;;;;;-128.00;-1.00;-1.00;105240;1259;1005019;-79
2023/05/21 04:03:16;;;;;;;24.00;18.40;;;;;;;-128.00;-1.00;-1.00;105036;1259;1006223;-79
2023/05/21 04:05:43;;;;;;;27.90;19.80;;;;;;;-128.00;-1.00;-1.00;105243;1263;1005261;-79
2023/05/21 04:08:09;;;;;;;25.60;20.00;;;;;;;-128.00;-1.00;-1.00;105070;1259;1004912;-79
2023/05/21 04:10:36;;;;;;;30.10;20.70;;;;;;;-128.00;-1.00;-1.00;105053;1261;1004968;-77
2023/05/21 04:13:02;;;;;;;28.00;20.60;;;;;;;-128.00;-1.00;-1.00;105007;1260;1004563;-79
2023/05/21 04:15:29;;;;;;;30.60;21.50;;;;;;;-128.00;-1.00;-1.00;104987;1260;1004078;-77
2023/05/21 04:17:55;;;;;;;27.50;20.70;;;;;;;-128.00;-1.00;-1.00;105049;1259;1005857;-79
2023/05/21 04:20:22;;;;;;;29.70;20.20;;;;;;;-128.00;-1.00;-1.00;105049;1259;1005971;-79
2023/05/21 04:22:48;;;;;;;29.70;20.10;;;;;;;-128.00;-1.00;-1.00;105077;1260;1004432;-78
2023/05/21 04:25:14;;;;;;;29.90;21.30;;;;;;;-128.00;-1.00;-1.00;105066;1259;1003949;-79
2023/05/21 04:27:42;;;;;;;28.90;21.40;;;;;;;-128.00;-1.00;-1.00;105050;1258;1005031;-77
2023/05/21 04:30:09;;;;;;;31.20;22.10;;;;;;;-128.00;-1.00;-1.00;105078;1260;1003771;-79
2023/05/21 04:32:37;;;;;;;25.90;20.40;;;;;;;-128.00;-1.00;-1.00;105137;1260;1004040;-77
2023/05/21 04:35:04;;;;;;;27.70;20.70;;;;;;;-128.00;-1.00;-1.00;105050;1260;1003370;-79
2023/05/21 04:37:33;;;;;;;36.50;25.00;;;;;;;-128.00;-1.00;-1.00;105046;1261;1004843;-78
2023/05/21 04:40:01;;;;;;;38.10;25.00;;;;;;;-128.00;-1.00;-1.00;105054;1260;1045884;-77
2023/05/21 04:42:28;;;;;;;31.30;22.70;;;;;;;-128.00;-1.00;-1.00;105070;1260;1003932;-77
2023/05/21 04:44:58;;;;;;;30.60;19.90;;;;;;;-128.00;-1.00;-1.00;105069;1260;1003504;-79
2023/05/21 04:47:24;;;;;;;23.40;18.60;;;;;;;-128.00;-1.00;-1.00;105082;1260;1058579;-79
2023/05/21 04:49:52;;;;;;;25.00;18.70;;;;;;;-128.00;-1.00;-1.00;105040;1257;1003724;-80
2023/05/21 04:52:18;;;;;;;28.30;17.90;;;;;;;-128.00;-1.00;-1.00;105078;1260;1004527;-80
2023/05/21 04:54:46;;;;;;;25.80;19.60;;;;;;;-128.00;-1.00;-1.00;105068;1259;1004685;-79
2023/05/21 04:57:12;;;;;;;29.90;18.90;;;;;;;-128.00;-1.00;-1.00;105069;1260;1005194;-77
2023/05/21 04:59:40;;;;;;;23.60;16.60;;;;;;;-128.00;-1.00;-1.00;105049;1260;1004472;-79
2023/05/21 05:02:06;;;;;;;23.50;18.80;;;;;;;-128.00;-1.00;-1.00;105039;1259;1004469;-79
2023/05/21 05:04:33;;;;;;;31.90;19.30;;;;;;;-128.00;-1.00;-1.00;105029;1261;1003554;-77
2023/05/21 05:06:59;;;;;;;25.70;17.60;;;;;;;-128.00;-1.00;-1.00;105104;1259;1004852;-79
2023/05/21 05:09:26;;;;;;;24.60;18.10;;;;;;;-128.00;-1.00;-1.00;105045;1260;1003541;-77
2023/05/21 05:11:52;;;;;;;22.50;16.20;;;;;;;-128.00;-1.00;-1.00;105052;1259;1004426;-77
2023/05/21 05:14:19;;;;;;;22.00;17.40;;;;;;;-128.00;-1.00;-1.00;105040;1259;1004124;-80
2023/05/21 05:16:47;;;;;;;27.40;16.20;;;;;;;-128.00;-1.00;-1.00;105056;1259;1004485;-76
2023/05/21 05:19:13;;;;;;;20.50;16.50;;;;;;;-128.00;-1.00;-1.00;105004;1260;1004793;-79
2023/05/21 05:21:40;;;;;;;21.80;17.20;;;;;;;-128.00;-1.00;-1.00;105045;1259;1004865;-77
2023/05/21 05:24:06;;;;;;;23.60;18.70;;;;;;;-128.00;-1.00;-1.00;105064;1260;1004264;-80
2023/05/21 05:26:32;;;;;;;21.40;16.70;;;;;;;-128.00;-1.00;-1.00;105006;1259;1004118;-77
2023/05/21 05:28:59;;;;;;;19.80;15.60;;;;;;;-128.00;-1.00;-1.00;105058;1259;1005287;-77
2023/05/21 05:31:25;;;;;;;21.20;17.00;;;;;;;-128.00;-1.00;-1.00;105066;1259;1003353;-77
2023/05/21 05:33:52;;;;;;;22.10;15.20;;;;;;;-128.00;-1.00;-1.00;105089;1260;1004763;-80
2023/05/21 05:36:18;;;;;;;20.00;16.00;;;;;;;-128.00;-1.00;-1.00;105053;1259;1004683;-77
2023/05/21 05:38:45;;;;;;;21.60;14.90;;;;;;;-128.00;-1.00;-1.00;105054;1258;1003874;-80
2023/05/21 05:41:11;;;;;;;16.50;14.20;;;;;;;-128.00;-1.00;-1.00;105073;1259;1003562;-77
2023/05/21 05:43:37;;;;;;;22.00;14.90;;;;;;;-128.00;-1.00;-1.00;105043;1259;1004579;-77
2023/05/21 05:46:04;;;;;;;17.90;14.80;;;;;;;-128.00;-1.00;-1.00;105053;1260;1005562;-80
2023/05/21 05:48:30;;;;;;;18.30;14.60;;;;;;;-128.00;-1.00;-1.00;105081;1258;1003663;-77
2023/05/21 05:50:57;;;;;;;17.00;13.90;;;;;;;-128.00;-1.00;-1.00;105049;1259;1004453;-77
2023/05/21 05:53:23;;;;;;;17.00;13.90;;;;;;;-128.00;-1.00;-1.00;105033;1259;1003788;-79
2023/05/21 05:55:50;;;;;;;17.80;14.70;;;;;;;-128.00;-1.00;-1.00;105042;1260;1004523;-77
2023/05/21 05:58:16;;;;;;;19.30;13.60;;;;;;;-128.00;-1.00;-1.00;105062;1260;1003658;-79
2023/05/21 06:00:42;;;;;;;18.10;13.10;;;;;;;-128.00;-1.00;-1.00;105026;1260;1055628;-80
2023/05/21 06:03:10;;;;;;;17.90;13.80;;;;;;;-128.00;-1.00;-1.00;105018;1261;1046924;-80
2023/05/21 06:05:37;;;;;;;14.20;11.70;;;;;;;-128.00;-1.00;-1.00;105012;1259;1005046;-78
2023/05/21 06:08:04;;;;;;;15.50;12.30;;;;;;;-128.00;-1.00;-1.00;105064;1259;1004173;-80
2023/05/21 06:10:30;;;;;;;17.80;13.50;;;;;;;-128.00;-1.00;-1.00;105098;1259;1004449;-78
2023/05/21 06:12:56;;;;;;;15.90;14.20;;;;;;;-128.00;-1.00;-1.00;105058;1259;1004941;-80
2023/05/21 06:15:23;;;;;;;19.30;15.50;;;;;;;-128.00;-1.00;-1.00;105075;1258;1003765;-77
2023/05/21 06:17:49;;;;;;;17.70;14.80;;;;;;;-128.00;-1.00;-1.00;105085;1260;1003868;-77
2023/05/21 06:20:16;;;;;;;23.50;15.50;;;;;;;-128.00;-1.00;-1.00;105077;1260;1006845;-80
2023/05/21 06:22:42;;;;;;;20.60;15.80;;;;;;;-128.00;-1.00;-1.00;105090;1260;1004223;-80
2023/05/21 06:25:09;;;;;;;19.40;14.50;;;;;;;-128.00;-1.00;-1.00;104982;1259;1004202;-78
2023/05/21 06:27:38;;;;;;;17.30;13.20;;;;;;;-128.00;-1.00;-1.00;105054;1261;1004209;-77
2023/05/21 06:30:06;;;;;;;13.70;12.20;;;;;;;-128.00;-1.00;-1.00;105085;1260;1047805;-78
2023/05/21 06:32:32;;;;;;;19.20;13.20;;;;;;;-128.00;-1.00;-1.00;105092;1259;1003287;-79
2023/05/21 06:34:58;;;;;;;14.40;12.10;;;;;;;-128.00;-1.00;-1.00;105116;1256;1004490;-77
2023/05/21 06:37:25;;;;;;;16.10;12.70;;;;;;;-128.00;-1.00;-1.00;105075;1257;1004808;-77
2023/05/21 06:39:51;;;;;;;15.30;11.40;;;;;;;-128.00;-1.00;-1.00;105083;1256;1004125;-78
2023/05/21 06:42:18;;;;;;;15.00;11.20;;;;;;;-128.00;-1.00;-1.00;105125;1256;1004675;-77
2023/05/21 06:44:44;;;;;;;14.00;10.60;;;;;;;-128.00;-1.00;-1.00;105105;1257;1003521;-80
2023/05/21 06:47:10;;;;;;;16.60;11.50;;;;;;;-128.00;-1.00;-1.00;105095;1257;1004166;-78
2023/05/21 06:49:37;;;;;;;14.70;10.90;;;;;;;-128.00;-1.00;-1.00;105092;1257;1004372;-80
2023/05/21 06:52:04;;;;;;;13.60;11.50;;;;;;;-128.00;-1.00;-1.00;105056;1257;1004058;-78
2023/05/21 06:54:30;;;;;;;19.70;11.50;;;;;;;-128.00;-1.00;-1.00;105069;1257;1004190;-80
2023/05/21 06:56:57;;;;;;;15.00;12.20;;;;;;;-128.00;-1.00;-1.00;105107;1256;1003858;-80
2023/05/21 06:59:24;;;;;;;14.10;12.40;;;;;;;-128.00;-1.00;-1.00;105105;1257;1004907;-80
2023/05/21 07:01:50;;;;;;;13.20;11.30;;;;;;;-128.00;-1.00;-1.00;105075;1257;1004244;-80
2023/05/21 07:04:16;;;;;;;20.30;11.70;;;;;;;-128.00;-1.00;-1.00;105094;1257;1004394;-77
2023/05/21 07:06:43;;;;;;;18.00;11.50;;;;;;;-128.00;-1.00;-1.00;105097;1257;1003746;-80
2023/05/21 07:09:09;;;;;;;15.20;11.40;;;;;;;-128.00;-1.00;-1.00;105097;1257;1005426;-78
2023/05/21 07:11:35;;;;;;;16.10;12.10;;;;;;;-128.00;-1.00;-1.00;105111;1257;1003480;-78
2023/05/21 07:14:02;;;;;;;16.40;11.90;;;;;;;-128.00;-1.00;-1.00;105079;1257;1004163;-80
2023/05/21 07:16:29;;;;;;;14.30;11.80;;;;;;;-128.00;-1.00;-1.00;105089;1257;1003943;-78
2023/05/21 07:18:55;;;;;;;15.20;11.10;;;;;;;-128.00;-1.00;-1.00;105107;1256;1004380;-80
2023/05/21 07:21:22;;;;;;;12.60;10.80;;;;;;;-128.00;-1.00;-1.00;105089;1257;1004148;-78
2023/05/21 07:23:49;;;;;;;14.00;11.50;;;;;;;-128.00;-1.00;-1.00;105059;1257;1004333;-78
2023/05/21 07:26:15;;;;;;;14.60;11.40;;;;;;;-128.00;-1.00;-1.00;105087;1257;1004919;-81
2023/05/21 07:28:42;;;;;;;12.70;11.40;;;;;;;-128.00;-1.00;-1.00;105083;1257;1003961;-80
2023/05/21 07:31:10;;;;;;;13.80;11.10;;;;;;;-128.00;-1.00;-1.00;105092;1257;1004449;-81
2023/05/21 07:33:37;;;;;;;10.60;9.60;;;;;;;-128.00;-1.00;-1.00;105106;1256;1060526;-79
2023/05/21 07:36:04;;;;;;;13.50;9.60;;;;;;;-128.00;-1.00;-1.00;105082;1257;1003556;-80
2023/05/21 07:38:31;;;;;;;17.20;9.50;;;;;;;-128.00;-1.00;-1.00;105084;1257;1006138;-78
2023/05/21 07:40:57;;;;;;;12.70;9.20;;;;;;;-128.00;-1.00;-1.00;105049;1257;1003992;-78
2023/05/21 07:43:23;;;;;;;11.80;9.50;;;;;;;-128.00;-1.00;-1.00;105111;1256;1006256;-81
2023/05/21 07:45:50;;;;;;;16.90;8.70;;;;;;;-128.00;-1.00;-1.00;105137;1257;1004092;-78
2023/05/21 07:48:17;;;;;;;15.80;9.20;;;;;;;-128.00;-1.00;-1.00;105113;1256;1004641;-81
2023/05/21 07:50:44;;;;;;;11.40;9.10;;;;;;;-128.00;-1.00;-1.00;105089;1256;1003692;-81
2023/05/21 07:53:10;;;;;;;9.90;8.90;;;;;;;-128.00;-1.00;-1.00;105074;1257;1005310;-79
2023/05/21 07:55:36;;;;;;;11.60;8.80;;;;;;;-128.00;-1.00;-1.00;105129;1256;1004366;-80
2023/05/21 07:58:03;;;;;;;12.00;7.70;;;;;;;-128.00;-1.00;-1.00;105131;1256;1005437;-81
2023/05/21 08:00:29;;;;;;;10.70;7.20;;;;;;;-128.00;-1.00;-1.00;105120;1256;1004061;-79
2023/05/21 08:02:57;;;;;;;10.90;7.80;;;;;;;-128.00;-1.00;-1.00;105014;1257;1003867;-81
2023/05/21 08:05:24;;;;;;;13.40;7.80;;;;;;;-128.00;-1.00;-1.00;105108;1256;1003800;-81
2023/05/21 08:07:50;;;;;;;9.30;7.20;;;;;;;-128.00;-1.00;-1.00;105087;1256;1004614;-81
2023/05/21 08:10:17;;;;;;;15.00;7.20;;;;;;;-128.00;-1.00;-1.00;105094;1256;1004567;-78
2023/05/21 08:12:43;;;;;;;11.60;7.10;;;;;;;-128.00;-1.00;-1.00;105117;1256;1004147;-81
2023/05/21 08:15:10;;;;;;;8.00;7.00;;;;;;;-128.00;-1.00;-1.00;105103;1257;1004296;-79
2023/05/21 08:17:37;;;;;;;9.20;7.50;;;;;;;-128.00;-1.00;-1.00;105107;1256;1004256;-81
2023/05/21 08:20:04;;;;;;;8.70;6.50;;;;;;;-128.00;-1.00;-1.00;105080;1257;1004643;-81
2023/05/21 08:22:30;;;;;;;9.00;7.20;;;;;;;-128.00;-1.00;-1.00;105078;1257;1003543;-81
2023/05/21 08:24:57;;;;;;;8.10;6.50;;;;;;;-128.00;-1.00;-1.00;105113;1257;1004510;-79
2023/05/21 08:27:23;;;;;;;11.10;7.20;;;;;;;-128.00;-1.00;-1.00;105082;1257;1003935;-81
2023/05/21 08:29:51;;;;;;;9.40;6.80;;;;;;;-128.00;-1.00;-1.00;105108;1257;1003293;-81
2023/05/21 08:32:18;;;;;;;8.60;6.30;;;;;;;-128.00;-1.00;-1.00;105112;1257;1005418;-81
2023/05/21 08:34:44;;;;;;;9.10;6.60;;;;;;;-128.00;-1.00;-1.00;105115;1257;1004350;-81
2023/05/21 08:37:10;;;;;;;9.10;5.90;;;;;;;-128.00;-1.00;-1.00;105110;1257;1004619;-79
2023/05/21 08:39:37;;;;;;;9.60;5.60;;;;;;;-128.00;-1.00;-1.00;105078;1257;1005334;-81
2023/05/21 08:42:08;;;;;;;8.50;5.90;;;;;;;-128.00;-1.00;-1.00;105087;1257;1004247;-79
2023/05/21 08:44:36;;;;;;;7.60;5.80;;;;;;;-128.00;-1.00;-1.00;105169;1257;1046755;-81
2023/05/21 08:47:03;;;;;;;9.50;5.20;;;;;;;-128.00;-1.00;-1.00;105155;1256;1004874;-79
2023/05/21 08:49:30;;;;;;;6.60;5.00;;;;;;;-128.00;-1.00;-1.00;105096;1257;1004461;-79
2023/05/21 08:51:56;;;;;;;10.60;5.40;;;;;;;-128.00;-1.00;-1.00;105100;1257;1004402;-81
2023/05/21 08:54:22;;;;;;;7.60;4.20;;;;;;;-128.00;-1.00;-1.00;105099;1257;1004503;-81
2023/05/21 08:56:49;;;;;;;10.80;5.80;;;;;;;-128.00;-1.00;-1.00;105122;1257;1004467;-81
2023/05/21 08:59:15;;;;;;;11.30;5.40;;;;;;;-128.00;-1.00;-1.00;105072;1257;1004988;-79
2023/05/21 09:01:42;;;;;;;6.60;4.50;;;;;;;-128.00;-1.00;-1.00;105132;1257;1004656;-79
2023/05/21 09:04:09;;;;;;;7.70;4.70;;;;;;;-128.00;-1.00;-1.00;105073;1257;1004164;-81
2023/05/21 09:06:36;;;;;;;9.10;4.90;;;;;;;-128.00;-1.00;-1.00;105149;1257;1004683;-79
2023/05/21 09:09:11;;;;;;;8.20;5.10;;;;;;;-128.00;-1.00;-1.00;105152;1257;1003633;-79
2023/05/21 09:11:37;;;;;;;5.50;4.60;;;;;;;-128.00;-1.00;-1.00;105105;1257;1060267;-79
2023/05/21 09:14:04;;;;;;;7.30;4.40;;;;;;;-128.00;-1.00;-1.00;105116;1257;1005289;-79
2023/05/21 09:16:30;;;;;;;7.50;5.50;;;;;;;-128.00;-1.00;-1.00;105132;1257;1005060;-81
2023/05/21 09:18:57;;;;;;;7.40;3.80;;;;;;;-128.00;-1.00;-1.00;105154;1257;1004266;-79
2023/05/21 09:21:27;;;;;;;7.50;4.80;;;;;;;-128.00;-1.00;-1.00;105183;1257;1005325;-79
2023/05/21 09:23:58;;;;;;;5.00;3.90;;;;;;;-128.00;-1.00;-1.00;105150;1257;1061405;-81
2023/05/21 09:26:25;;;;;;;8.60;4.00;;;;;;;-128.00;-1.00;-1.00;105187;1257;1058148;-81
2023/05/21 09:28:51;;;;;;;7.50;4.60;;;;;;;-128.00;-1.00;-1.00;105121;1257;1005055;-81
2023/05/21 09:31:18;;;;;;;7.50;4.10;;;;;;;-128.00;-1.00;-1.00;105032;1257;1004247;-82
2023/05/21 09:33:45;;;;;;;6.10;4.20;;;;;;;-128.00;-1.00;-1.00;105144;1257;1004171;-82
2023/05/21 09:36:12;;;;;;;5.00;4.50;;;;;;;-128.00;-1.00;-1.00;105158;1257;1003366;-81
2023/05/21 09:38:38;;;;;;;6.40;4.50;;;;;;;-128.00;-1.00;-1.00;105137;1257;1004488;-82
2023/05/21 09:41:05;;;;;;;6.70;4.20;;;;;;;-128.00;-1.00;-1.00;105014;1256;1004495;-82
2023/05/21 09:43:31;;;;;;;5.90;4.70;;;;;;;-128.00;-1.00;-1.00;105169;1257;1005154;-79
2023/05/21 09:45:58;;;;;;;6.80;4.60;;;;;;;-128.00;-1.00;-1.00;105112;1257;1004500;-82
2023/05/21 09:48:33;;;;;;;7.10;4.80;;;;;;;-128.00;-1.00;-1.00;105113;1259;1004862;-79
2023/05/21 09:51:09;;;;;;;8.50;4.80;;;;;;;-128.00;-1.00;-1.00;105123;1257;1058397;-79
2023/05/21 09:53:35;;;;;;;6.90;4.30;;;;;;;-128.00;-1.00;-1.00;105196;1257;1059514;-82
2023/05/21 09:56:02;;;;;;;7.10;4.20;;;;;;;-128.00;-1.00;-1.00;105115;1257;1004553;-79
2023/05/21 09:58:29;;;;;;;4.40;3.60;;;;;;;-128.00;-1.00;-1.00;105099;1257;1003779;-79
2023/05/21 10:00:55;;;;;;;11.60;4.40;;;;;;;-128.00;-1.00;-1.00;105201;1257;1005510;-79
2023/05/21 10:03:22;;;;;;;7.90;5.80;;;;;;;-128.00;-1.00;-1.00;105110;1257;1004101;-82
2023/05/21 10:05:48;;;;;;;7.20;4.70;;;;;;;-128.00;-1.00;-1.00;105110;1257;1003921;-82
2023/05/21 10:08:16;;;;;;;8.60;4.60;;;;;;;-128.00;-1.00;-1.00;105152;1257;1004978;-79
2023/05/21 10:10:42;;;;;;;8.10;4.10;;;;;;;-128.00;-1.00;-1.00;105029;1257;1004788;-79
2023/05/21 10:13:09;;;;;;;5.00;4.20;;;;;;;-128.00;-1.00;-1.00;105144;1257;1004595;-81
2023/05/21 10:15:43;;;;;;;4.90;3.90;;;;;;;-128.00;-1.00;-1.00;105121;1257;1004091;-79
2023/05/21 10:18:10;;;;;;;7.30;5.30;;;;;;;-128.00;-1.00;-1.00;105128;1257;1059570;-81
2023/05/21 10:20:37;;;;;;;6.20;3.90;;;;;;;-128.00;-1.00;-1.00;105133;1257;1005393;-81
2023/05/21 10:23:03;;;;;;;10.40;4.60;;;;;;;-128.00;-1.00;-1.00;105128;1257;1004079;-82
2023/05/21 10:25:30;;;;;;;8.00;4.10;;;;;;;-128.00;-1.00;-1.00;105140;1257;1005200;-79
2023/05/21 10:27:56;;;;;;;9.20;3.70;;;;;;;-128.00;-1.00;-1.00;105161;1257;1004401;-82
2023/05/21 10:30:23;;;;;;;4.10;3.70;;;;;;;-128.00;-1.00;-1.00;105129;1257;1004232;-82
2023/05/21 10:32:49;;;;;;;6.00;3.80;;;;;;;-128.00;-1.00;-1.00;105141;1257;1004627;-79
2023/05/21 10:35:16;;;;;;;4.80;3.80;;;;;;;-128.00;-1.00;-1.00;105116;1257;1004901;-82
2023/05/21 10:37:43;;;;;;;10.40;4.00;;;;;;;-128.00;-1.00;-1.00;105148;1257;1004643;-81
2023/05/21 10:40:10;;;;;;;8.70;4.60;;;;;;;-128.00;-1.00;-1.00;105127;1259;1004393;-79
2023/05/21 10:42:58;;;;;;;8.70;4.00;;;;;;;-128.00;-1.00;-1.00;105117;1256;1004402;-78
2023/05/21 10:45:36;;;;;;;5.10;3.60;;;;;;;-128.00;-1.00;-1.00;105138;1257;1044080;-79
2023/05/21 10:48:40;;;;;;;5.00;3.40;;;;;;;-128.00;-1.00;-1.00;105144;1257;1048259;-79
2023/05/21 10:51:17;;;;;;;10.30;3.30;;;;;;;-128.00;-1.00;-1.00;105167;1257;1060399;-79
2023/05/21 10:54:15;;;;;;;6.50;3.00;;;;;;;-128.00;-1.00;-1.00;105043;1257;1058344;-81
2023/05/21 10:56:45;;;;;;;6.90;3.40;;;;;;;-128.00;-1.00;-1.00;105133;1257;1059149;-81
2023/05/21 10:59:20;;;;;;;4.20;3.00;;;;;;;-128.00;-1.00;-1.00;105009;1257;1044051;-79
2023/05/21 11:01:51;;;;;;;6.70;3.20;;;;;;;-128.00;-1.00;-1.00;105151;1257;1048821;-79
2023/05/21 11:04:38;;;;;;;5.60;2.50;;;;;;;-128.00;-1.00;-1.00;105125;1257;1060568;-82
2023/05/21 11:07:05;;;;;;;6.70;2.30;;;;;;;-128.00;-1.00;-1.00;105152;1257;1058907;-79
2023/05/21 11:09:31;;;;;;;5.50;2.50;;;;;;;-128.00;-1.00;-1.00;105102;1257;1005779;-79